Terminal Aerodrome Forecast
Issued by NWS

Home | Current Version | Previous Version | Text Only | Print | Product List | Glossary On
Versions: 1 2 3 4 5 6 7 8 9 10 11 12
439
FTUS41 KLWX 242320
TAFMTN
TAF
KMTN 242320Z 2500/2524 16008KT P6SM SCT200
     FM250400 16008KT P6SM BKN200
     FM250500 16007KT P6SM BKN030
     FM251200 16005KT P6SM BKN008
     FM251400 16008KT P6SM BKN025
     FM251800 16011G19KT 3SM -SHRA OVC030
     FM252100 26016G25KT P6SM -SHRA OVC035
      AMD NOT SKED 2502/2512=

USA.gov is the U.S. government's official web portal to all federal, state and local government web resources and services.